Time;durP1;ratioP1;P1;durP2;ratioP2;P2;SDS_P1;SDS_P2;PMS_P1;PMS_P2;Temp;Humidity;BMP_temperature;BMP_pressure;BME280_temperature;BME280_humidity;BME280_pressure;Samples;Min_cycle;Max_cycle;Signal;HPM_P1;HPM_P2
2021/01/16 00:00:38;;;;;;;;;;;;;;;20.79;32.47;102613.81;3089824;28;115760;-54
2021/01/16 00:02:16;;;;;;;;;;;;;;;20.80;32.68;102609.03;3089697;28;115643;-54
2021/01/16 00:03:48;;;;;;;;;;;;;;;20.79;32.61;102612.97;3094842;28;114146;-54
2021/01/16 00:05:22;;;;;;;;;;;;;;;20.75;32.44;102601.44;3097699;28;114679;-55
2021/01/16 00:06:54;;;;;;;;;;;;;;;20.75;32.39;102603.38;3093632;28;114250;-54
2021/01/16 00:08:41;;;;;;;;;;;;;;;20.73;32.66;102602.78;3092703;28;115405;-54
2021/01/16 00:10:16;;;;;;;;;;;;;;;20.70;32.51;102598.56;3096164;28;114697;-54
2021/01/16 00:11:48;;;;;;;;;;;;;;;20.69;33.00;102607.25;3090888;28;115086;-54
2021/01/16 00:13:23;;;;;;;;;;;;;;;20.46;29.26;102605.66;3089602;28;116405;-55
2021/01/16 00:14:54;;;;;;;;;;;;;;;19.98;28.89;102596.22;3092039;28;114431;-56
2021/01/16 00:16:26;;;;;;;;;;;;;;;19.96;33.09;102595.63;3093694;28;117402;-55
2021/01/16 00:17:57;;;;;;;;;;;;;;;19.99;32.68;102588.63;3094266;28;115126;-53
2021/01/16 00:19:28;;;;;;;;;;;;;;;20.11;32.59;102594.09;3097188;28;117378;-60
2021/01/16 00:21:02;;;;;;;;;;;;;;;20.18;32.96;102595.56;3091745;28;114581;-66
2021/01/16 00:22:49;;;;;;;;;;;;;;;20.24;33.50;102590.84;3094735;28;114313;-59
2021/01/16 00:24:20;;;;;;;;;;;;;;;20.34;33.35;102586.22;3091021;28;115906;-58
2021/01/16 00:25:52;;;;;;;;;;;;;;;20.39;33.25;102583.44;3094148;28;115811;-62
2021/01/16 00:27:23;;;;;;;;;;;;;;;20.48;33.67;102592.22;3091611;28;115609;-62
2021/01/16 00:28:54;;;;;;;;;;;;;;;20.54;33.42;102585.50;3094776;28;116015;-59
2021/01/16 00:30:26;;;;;;;;;;;;;;;20.53;33.51;102577.38;3095247;28;114495;-57
2021/01/16 00:31:58;;;;;;;;;;;;;;;20.50;33.48;102584.38;3092596;28;115803;-57
2021/01/16 00:33:31;;;;;;;;;;;;;;;20.50;33.50;102580.72;3094593;28;114623;-57
2021/01/16 00:35:14;;;;;;;;;;;;;;;20.46;33.63;102579.56;3096513;28;115139;-57
2021/01/16 00:36:45;;;;;;;;;;;;;;;20.44;33.57;102584.59;3092442;28;114751;-58
2021/01/16 00:38:17;;;;;;;;;;;;;;;20.42;33.75;102576.44;3087020;28;115982;-60
2021/01/16 00:39:48;;;;;;;;;;;;;;;20.37;33.40;102580.06;3091529;28;115306;-58
2021/01/16 00:41:19;;;;;;;;;;;;;;;20.35;33.63;102576.66;3091999;28;114676;-57
2021/01/16 00:42:54;;;;;;;;;;;;;;;20.33;33.73;102576.09;3093362;28;115669;-58
2021/01/16 00:44:25;;;;;;;;;;;;;;;20.31;33.54;102581.09;3089651;28;114781;-58
2021/01/16 00:45:56;;;;;;;;;;;;;;;20.31;33.68;102569.03;3095620;28;116106;-58
2021/01/16 00:47:27;;;;;;;;;;;;;;;20.29;33.50;102572.09;3094368;28;113969;-58
2021/01/16 00:48:59;;;;;;;;;;;;;;;20.27;33.54;102565.03;3091804;28;114571;-58
2021/01/16 00:50:30;;;;;;;;;;;;;;;20.24;33.85;102560.81;3092716;28;114497;-58
2021/01/16 00:52:01;;;;;;;;;;;;;;;20.22;33.80;102551.81;3091911;28;114364;-58
2021/01/16 00:53:32;;;;;;;;;;;;;;;20.18;33.84;102553.47;3091766;28;114651;-58
2021/01/16 00:55:04;;;;;;;;;;;;;;;20.18;33.96;102549.81;3087427;28;114220;-59
2021/01/16 00:56:39;;;;;;;;;;;;;;;20.15;33.74;102544.72;3094423;28;114850;-59
2021/01/16 00:58:13;;;;;;;;;;;;;;;20.15;33.82;102544.72;3084141;28;114367;-59
2021/01/16 00:59:47;;;;;;;;;;;;;;;20.12;33.48;102556.50;3097557;28;114448;-59
2021/01/16 01:01:18;;;;;;;;;;;;;;;20.08;33.47;102544.13;3096653;28;114068;-59
2021/01/16 01:02:50;;;;;;;;;;;;;;;20.06;33.72;102543.53;3093239;28;114269;-59
2021/01/16 01:04:21;;;;;;;;;;;;;;;20.04;33.58;102537.31;3088259;28;114721;-59
2021/01/16 01:05:54;;;;;;;;;;;;;;;20.00;33.57;102539.81;3094164;28;113870;-59
2021/01/16 01:07:25;;;;;;;;;;;;;;;19.94;33.82;102536.13;3093464;28;115542;-59
2021/01/16 01:08:56;;;;;;;;;;;;;;;20.01;33.54;102544.31;3092266;28;115148;-59
2021/01/16 01:10:57;;;;;;;;;;;;;;;19.97;33.88;102526.34;3088811;28;115673;-58
2021/01/16 01:12:28;;;;;;;;;;;;;;;19.97;33.94;102534.75;3090790;28;114088;-54
2021/01/16 01:13:59;;;;;;;;;;;;;;;20.02;34.36;102534.81;3085257;28;115506;-54
2021/01/16 01:15:30;;;;;;;;;;;;;;;20.09;34.43;102531.75;3089613;28;114229;-54
2021/01/16 01:17:03;;;;;;;;;;;;;;;20.05;34.52;102539.88;3096254;28;114764;-54
2021/01/16 01:18:34;;;;;;;;;;;;;;;20.02;34.70;102536.75;3091022;28;114218;-55
2021/01/16 01:20:06;;;;;;;;;;;;;;;20.00;34.70;102528.59;3089561;28;115280;-54
2021/01/16 01:21:37;;;;;;;;;;;;;;;19.97;34.54;102527.19;3094867;28;115138;-55
2021/01/16 01:23:08;;;;;;;;;;;;;;;19.97;34.55;102523.53;3093010;28;115395;-55
2021/01/16 01:24:39;;;;;;;;;;;;;;;19.95;34.63;102511.72;3092367;28;114909;-54
2021/01/16 01:26:11;;;;;;;;;;;;;;;19.92;34.80;102510.31;3096356;28;115722;-55
2021/01/16 01:27:43;;;;;;;;;;;;;;;19.92;34.68;102513.09;3096628;28;114902;-54
2021/01/16 01:29:14;;;;;;;;;;;;;;;19.92;34.83;102517.88;3095032;28;115175;-55
2021/01/16 01:30:45;;;;;;;;;;;;;;;19.92;35.02;102507.50;3095059;28;115833;-54
2021/01/16 01:32:16;;;;;;;;;;;;;;;19.90;34.74;102506.06;3090597;28;115680;-55
2021/01/16 01:33:48;;;;;;;;;;;;;;;19.87;34.96;102501.84;3092173;28;114702;-55
2021/01/16 01:35:20;;;;;;;;;;;;;;;19.87;35.13;102501.84;3096721;28;114785;-59
2021/01/16 01:36:51;;;;;;;;;;;;;;;19.84;35.09;102491.16;3088384;28;115211;-59
2021/01/16 01:38:22;;;;;;;;;;;;;;;19.84;35.06;102493.97;3095549;28;115605;-59
2021/01/16 01:39:56;;;;;;;;;;;;;;;19.83;35.32;102500.69;3085102;28;114796;-59
2021/01/16 01:41:27;;;;;;;;;;;;;;;19.81;35.17;102494.47;3091793;28;115970;-60
2021/01/16 01:42:58;;;;;;;;;;;;;;;19.81;35.29;102499.22;3092192;28;115941;-60
2021/01/16 01:44:29;;;;;;;;;;;;;;;19.79;35.40;102507.94;3097619;28;116037;-60
2021/01/16 01:46:00;;;;;;;;;;;;;;;19.77;35.28;102496.13;3093868;28;114782;-60
2021/01/16 01:47:32;;;;;;;;;;;;;;;19.75;35.62;102489.94;3094243;28;115870;-60
2021/01/16 01:49:04;;;;;;;;;;;;;;;19.73;35.64;102488.50;3090014;28;114527;-60
2021/01/16 01:50:35;;;;;;;;;;;;;;;19.71;35.65;102483.19;3093899;28;116348;-60
2021/01/16 01:52:08;;;;;;;;;;;;;;;19.70;35.68;102480.63;3095600;28;114513;-60
2021/01/16 01:53:40;;;;;;;;;;;;;;;19.69;35.89;102478.94;3090832;28;114703;-58
2021/01/16 01:55:12;;;;;;;;;;;;;;;19.70;35.97;102475.88;3090622;28;117068;-59
2021/01/16 01:56:44;;;;;;;;;;;;;;;19.70;35.90;102475.03;3095110;28;114507;-55
2021/01/16 01:58:16;;;;;;;;;;;;;;;19.67;36.01;102465.16;3090702;28;114071;-54
2021/01/16 01:59:49;;;;;;;;;;;;;;;19.66;36.02;102463.50;3094674;28;113830;-54
2021/01/16 02:01:21;;;;;;;;;;;;;;;19.67;36.05;102459.56;3091221;28;114930;-54
2021/01/16 02:02:53;;;;;;;;;;;;;;;19.66;36.28;102459.84;3097816;28;116400;-54
2021/01/16 02:04:25;;;;;;;;;;;;;;;19.64;36.43;102446.09;3093990;28;114330;-54
2021/01/16 02:05:56;;;;;;;;;;;;;;;19.64;36.07;102448.88;3100847;28;114004;-54
2021/01/16 02:07:29;;;;;;;;;;;;;;;19.62;36.08;102439.91;3086746;28;114359;-54
2021/01/16 02:09:00;;;;;;;;;;;;;;;19.61;36.37;102441.03;3097371;28;113967;-54
2021/01/16 02:10:33;;;;;;;;;;;;;;;19.61;36.61;102437.38;3091566;28;113720;-55
2021/01/16 02:12:04;;;;;;;;;;;;;;;19.60;36.57;102428.09;3094542;28;114017;-55
2021/01/16 02:13:35;;;;;;;;;;;;;;;19.60;36.72;102435.66;3096516;28;114948;-55
2021/01/16 02:15:12;;;;;;;;;;;;;;;19.59;37.00;102423.59;3090687;28;115376;-55
2021/01/16 02:16:45;;;;;;;;;;;;;;;19.58;36.71;102423.88;3094985;28;115182;-55
2021/01/16 02:18:29;;;;;;;;;;;;;;;19.57;36.82;102423.03;3087462;28;115099;-55
2021/01/16 02:20:08;;;;;;;;;;;;;;;19.56;37.11;102429.75;3097919;28;114364;-55
2021/01/16 02:21:43;;;;;;;;;;;;;;;19.54;37.40;102435.63;3089761;28;114851;-54
2021/01/16 02:23:29;;;;;;;;;;;;;;;19.54;37.50;102426.34;3096261;28;114662;-55
2021/01/16 02:25:20;;;;;;;;;;;;;;;19.52;37.56;102429.44;3087179;28;114593;-55
2021/01/16 02:26:51;;;;;;;;;;;;;;;19.52;37.51;102429.44;3097439;28;114188;-55
2021/01/16 02:28:24;;;;;;;;;;;;;;;19.51;37.42;102432.50;3097789;28;114634;-55
2021/01/16 02:29:55;;;;;;;;;;;;;;;19.50;37.43;102436.41;3097663;28;115238;-55
2021/01/16 02:31:37;;;;;;;;;;;;;;;19.48;37.46;102428.28;3097624;28;115576;-55
2021/01/16 02:33:10;;;;;;;;;;;;;;;19.47;37.60;102428.53;3088090;28;116904;-55
2021/01/16 02:34:41;;;;;;;;;;;;;;;19.46;37.53;102432.44;3094978;28;114248;-55
2021/01/16 02:36:27;;;;;;;;;;;;;;;19.44;37.50;102420.69;3103299;28;114239;-55
2021/01/16 02:38:07;;;;;;;;;;;;;;;19.41;37.96;102418.34;3097055;28;115396;-61
2021/01/16 02:39:57;;;;;;;;;;;;;;;19.39;37.92;102415.84;3091155;28;116315;-61
2021/01/16 02:41:47;;;;;;;;;;;;;;;19.38;37.97;102402.91;3086591;28;115979;-61
2021/01/16 02:43:33;;;;;;;;;;;;;;;19.38;38.03;102405.72;3086077;28;115854;-61
2021/01/16 02:45:06;;;;;;;;;;;;;;;19.39;38.32;102400.97;3085289;28;115757;-61
2021/01/16 02:46:42;;;;;;;;;;;;;;;19.40;38.35;102409.09;3090870;28;114586;-60
2021/01/16 02:48:24;;;;;;;;;;;;;;;19.39;38.05;102407.41;3091420;28;115045;-60
2021/01/16 02:50:06;;;;;;;;;;;;;;;19.38;38.28;102410.47;3097546;27;114611;-60
2021/01/16 02:51:46;;;;;;;;;;;;;;;19.36;38.35;102395.88;3090716;28;114666;-59
2021/01/16 02:53:32;;;;;;;;;;;;;;;19.36;38.47;102395.88;3096864;28;115240;-58
2021/01/16 02:55:03;;;;;;;;;;;;;;;19.35;38.40;102399.81;3089169;28;115858;-59
2021/01/16 02:56:35;;;;;;;;;;;;;;;19.37;38.50;102397.56;3087492;28;114582;-60
2021/01/16 02:58:07;;;;;;;;;;;;;;;19.35;38.51;102395.03;3089449;28;116774;-58
2021/01/16 02:59:39;;;;;;;;;;;;;;;19.35;38.59;102389.41;3088910;28;115482;-58
2021/01/16 03:01:10;;;;;;;;;;;;;;;19.35;38.72;102389.41;3099406;28;114258;-58
2021/01/16 03:02:41;;;;;;;;;;;;;;;19.34;38.39;102384.09;3085855;28;114091;-58
2021/01/16 03:04:13;;;;;;;;;;;;;;;19.33;38.43;102390.81;3092584;28;114749;-58
2021/01/16 03:05:44;;;;;;;;;;;;;;;19.33;38.56;102385.19;3096399;28;113721;-58
2021/01/16 03:07:16;;;;;;;;;;;;;;;19.30;38.58;102386.59;3098332;28;115424;-58
2021/01/16 03:08:47;;;;;;;;;;;;;;;19.30;38.29;102382.94;3096763;28;113841;-58
2021/01/16 03:10:18;;;;;;;;;;;;;;;19.29;38.33;102384.03;3089970;28;114427;-58
2021/01/16 03:11:51;;;;;;;;;;;;;;;19.28;38.60;102385.16;3093181;28;113943;-58
2021/01/16 03:13:24;;;;;;;;;;;;;;;19.25;38.67;102375.31;3087635;28;114576;-58
2021/01/16 03:14:56;;;;;;;;;;;;;;;19.26;38.42;102377.00;3089745;28;114633;-58
2021/01/16 03:16:28;;;;;;;;;;;;;;;19.26;38.84;102367.78;3092378;28;114832;-58
2021/01/16 03:17:59;;;;;;;;;;;;;;;19.25;38.69;102375.31;3087011;28;113776;-58
2021/01/16 03:19:32;;;;;;;;;;;;;;;19.23;38.87;102373.88;3097092;28;114148;-58
2021/01/16 03:21:03;;;;;;;;;;;;;;;19.23;38.92;102366.31;3092675;28;114211;-57
2021/01/16 03:22:34;;;;;;;;;;;;;;;19.22;38.91;102356.22;3097849;28;114273;-58
2021/01/16 03:24:06;;;;;;;;;;;;;;;19.22;39.02;102358.19;3096593;28;114498;-58
2021/01/16 03:25:37;;;;;;;;;;;;;;;19.20;39.06;102352.84;3096687;28;115740;-58
2021/01/16 03:27:12;;;;;;;;;;;;;;;19.19;38.89;102344.72;3089141;28;115206;-58
2021/01/16 03:28:43;;;;;;;;;;;;;;;19.18;38.90;102346.66;3091076;28;114580;-58
2021/01/16 03:30:15;;;;;;;;;;;;;;;19.17;38.73;102347.75;3085155;28;115360;-58
2021/01/16 03:31:46;;;;;;;;;;;;;;;19.16;39.05;102343.28;3093852;28;115339;-58
2021/01/16 03:33:18;;;;;;;;;;;;;;;19.14;39.09;102351.09;3091989;28;114818;-58
2021/01/16 03:34:49;;;;;;;;;;;;;;;19.14;39.15;102344.66;3094413;28;114266;-58
2021/01/16 03:36:20;;;;;;;;;;;;;;;19.13;39.31;102342.97;3098551;28;114113;-58
2021/01/16 03:37:53;;;;;;;;;;;;;;;19.12;39.19;102336.53;3092170;28;114504;-59
2021/01/16 03:39:24;;;;;;;;;;;;;;;19.13;39.11;102329.78;3089808;28;119032;-57
2021/01/16 03:40:55;;;;;;;;;;;;;;;19.12;39.52;102330.09;3094487;28;115305;-58
2021/01/16 03:42:26;;;;;;;;;;;;;;;19.10;39.67;102321.94;3090933;28;115432;-53
2021/01/16 03:43:59;;;;;;;;;;;;;;;19.09;39.73;102317.44;3086969;28;115876;-53
2021/01/16 03:45:30;;;;;;;;;;;;;;;19.09;39.24;102311.84;3086640;28;115409;-55
2021/01/16 03:47:02;;;;;;;;;;;;;;;19.07;39.19;102312.13;3095273;28;115044;-53
2021/01/16 03:48:35;;;;;;;;;;;;;;;19.06;39.27;102312.38;3099715;28;115348;-54
2021/01/16 03:50:07;;;;;;;;;;;;;;;19.06;39.48;102309.56;3097022;28;115981;-53
2021/01/16 03:51:38;;;;;;;;;;;;;;;19.03;39.32;102304.50;3092725;28;115148;-53
2021/01/16 03:53:10;;;;;;;;;;;;;;;19.03;39.36;102307.31;3084718;28;115768;-54
2021/01/16 03:54:41;;;;;;;;;;;;;;;19.01;39.53;102299.16;3085269;28;115385;-54
2021/01/16 03:56:12;;;;;;;;;;;;;;;19.01;39.17;102298.31;3087074;28;116322;-54
2021/01/16 03:57:43;;;;;;;;;;;;;;;19.00;39.11;102300.25;3087102;28;115492;-53
2021/01/16 03:59:14;;;;;;;;;;;;;;;18.99;39.24;102287.38;3083617;28;115031;-54
2021/01/16 04:00:45;;;;;;;;;;;;;;;18.98;39.18;102284.84;3094815;28;115429;-53
2021/01/16 04:02:17;;;;;;;;;;;;;;;18.97;39.30;102281.19;3093915;28;114426;-53
2021/01/16 04:03:48;;;;;;;;;;;;;;;18.97;39.01;102283.16;3086397;28;115890;-53
2021/01/16 04:05:19;;;;;;;;;;;;;;;18.97;39.29;102274.75;3098845;28;115980;-54
2021/01/16 04:06:50;;;;;;;;;;;;;;;18.94;39.44;102272.50;3092198;28;114462;-53
2021/01/16 04:08:22;;;;;;;;;;;;;;;18.94;39.07;102283.69;3093192;28;116129;-53
2021/01/16 04:09:56;;;;;;;;;;;;;;;18.92;39.01;102272.75;3093751;28;114115;-53
2021/01/16 04:11:28;;;;;;;;;;;;;;;18.91;39.09;102271.06;3091190;28;114490;-54
2021/01/16 04:13:00;;;;;;;;;;;;;;;18.91;39.37;102271.06;3091167;28;114549;-53
2021/01/16 04:14:31;;;;;;;;;;;;;;;18.88;39.13;102257.59;3087501;28;113850;-53
2021/01/16 04:16:02;;;;;;;;;;;;;;;18.88;39.21;102260.38;3088813;28;114017;-53
2021/01/16 04:17:34;;;;;;;;;;;;;;;18.88;38.79;102265.16;3090541;28;114291;-53
2021/01/16 04:19:05;;;;;;;;;;;;;;;18.89;39.16;102267.69;3094956;28;114193;-53
2021/01/16 04:20:36;;;;;;;;;;;;;;;18.85;39.11;102266.50;3094447;28;114276;-54
2021/01/16 04:22:08;;;;;;;;;;;;;;;18.84;39.26;102259.22;3084556;28;114128;-54
2021/01/16 04:23:39;;;;;;;;;;;;;;;18.84;39.38;102248.03;3089611;28;114060;-53
2021/01/16 04:25:11;;;;;;;;;;;;;;;18.83;39.52;102254.75;3088893;28;114381;-54
2021/01/16 04:27:03;;;;;;;;;;;;;;;18.83;39.32;102249.13;3101204;28;114215;-54
2021/01/16 04:28:43;;;;;;;;;;;;;;;18.80;39.02;102246.88;3087373;28;114381;-54
2021/01/16 04:30:18;;;;;;;;;;;;;;;18.83;38.97;102240.75;3084973;28;114406;-54
2021/01/16 04:31:50;;;;;;;;;;;;;;;18.81;39.05;102242.94;3084640;28;114100;-54
2021/01/16 04:33:23;;;;;;;;;;;;;;;18.81;39.14;102259.75;3085853;28;114645;-55
2021/01/16 04:34:55;;;;;;;;;;;;;;;18.80;39.02;102246.03;3094150;28;115238;-55
2021/01/16 04:36:26;;;;;;;;;;;;;;;18.81;38.73;102256.94;3096182;28;115232;-55
2021/01/16 04:37:58;;;;;;;;;;;;;;;18.81;38.68;102259.75;3093864;28;115304;-55
2021/01/16 04:39:29;;;;;;;;;;;;;;;18.80;38.46;102254.44;3094383;28;115119;-55
2021/01/16 04:41:01;;;;;;;;;;;;;;;18.78;38.60;102256.63;3095338;28;117911;-56
2021/01/16 04:42:33;;;;;;;;;;;;;;;18.77;38.58;102252.13;3095929;28;115581;-55
2021/01/16 04:44:05;;;;;;;;;;;;;;;18.75;38.34;102249.63;3095983;28;116737;-55
2021/01/16 04:45:37;;;;;;;;;;;;;;;18.72;38.41;102247.34;3096177;27;114521;-55
2021/01/16 04:47:11;;;;;;;;;;;;;;;18.71;38.58;102242.03;3085210;28;115427;-55
2021/01/16 04:48:43;;;;;;;;;;;;;;;18.71;38.63;102236.41;3096096;28;114062;-54
2021/01/16 04:50:18;;;;;;;;;;;;;;;18.68;38.73;102240.56;3095154;28;114407;-54
2021/01/16 04:51:52;;;;;;;;;;;;;;;18.65;38.73;102236.38;3091204;28;115683;-55
2021/01/16 04:53:26;;;;;;;;;;;;;;;18.67;38.56;102233.28;3085732;28;114815;-55
2021/01/16 04:54:58;;;;;;;;;;;;;;;18.66;38.50;102234.41;3090507;28;115903;-55
2021/01/16 04:56:30;;;;;;;;;;;;;;;18.65;38.58;102230.75;3090174;28;114822;-55
2021/01/16 04:58:06;;;;;;;;;;;;;;;18.64;38.58;102231.03;3086630;28;114684;-55
2021/01/16 04:59:37;;;;;;;;;;;;;;;18.62;38.59;102228.47;3095389;28;116135;-55
2021/01/16 05:01:10;;;;;;;;;;;;;;;18.64;38.28;102225.41;3096854;28;115102;-55
2021/01/16 05:02:42;;;;;;;;;;;;;;;18.63;38.21;102215.31;3091406;28;114670;-55
2021/01/16 05:04:15;;;;;;;;;;;;;;;18.61;38.16;102212.81;3096905;28;115906;-55
2021/01/16 05:05:47;;;;;;;;;;;;;;;18.59;38.17;102202.97;3094736;28;114651;-56
2021/01/16 05:07:19;;;;;;;;;;;;;;;18.56;38.34;102209.97;3090898;28;115007;-55
2021/01/16 05:08:52;;;;;;;;;;;;;;;18.54;38.28;102206.56;3085262;28;114974;-55
2021/01/16 05:10:24;;;;;;;;;;;;;;;18.53;38.34;102192.84;3093820;28;114804;-55
2021/01/16 05:12:16;;;;;;;;;;;;;;;18.53;38.35;102190.06;3098452;28;114160;-55
2021/01/16 05:13:53;;;;;;;;;;;;;;;18.49;38.40;102186.88;3090333;28;114383;-55
2021/01/16 05:15:29;;;;;;;;;;;;;;;18.48;38.65;102176.81;3089820;28;114610;-55
2021/01/16 05:17:01;;;;;;;;;;;;;;;18.48;38.27;102176.81;3093141;28;114271;-55
2021/01/16 05:18:37;;;;;;;;;;;;;;;18.46;38.39;102167.00;3094365;28;114114;-54
2021/01/16 05:20:08;;;;;;;;;;;;;;;18.45;38.35;102171.75;3090761;28;114006;-54
2021/01/16 05:21:40;;;;;;;;;;;;;;;18.46;38.16;102172.59;3096034;28;114373;-54
2021/01/16 05:23:12;;;;;;;;;;;;;;;18.43;38.24;102167.53;3090222;28;114415;-54
2021/01/16 05:24:43;;;;;;;;;;;;;;;18.41;38.34;102156.59;3095677;28;114259;-54
2021/01/16 05:26:15;;;;;;;;;;;;;;;18.40;38.43;102152.09;3096624;28;113815;-54
2021/01/16 05:27:52;;;;;;;;;;;;;;;18.38;38.56;102150.69;3094354;28;113816;-54
2021/01/16 05:29:24;;;;;;;;;;;;;;;18.38;38.38;102151.53;3094764;28;113870;-54
2021/01/16 05:30:56;;;;;;;;;;;;;;;18.38;38.13;102154.34;3091877;28;114727;-54
2021/01/16 05:32:29;;;;;;;;;;;;;;;18.35;38.11;102154.03;3095473;28;114129;-54
2021/01/16 05:34:02;;;;;;;;;;;;;;;18.32;38.30;102146.97;3097460;28;114093;-55
2021/01/16 05:35:34;;;;;;;;;;;;;;;18.30;38.21;102134.38;3096732;28;115046;-54
2021/01/16 05:37:05;;;;;;;;;;;;;;;18.31;37.95;102134.09;3090409;28;114410;-54
2021/01/16 05:38:38;;;;;;;;;;;;;;;18.29;37.84;102130.75;3093833;28;115274;-54
2021/01/16 05:40:09;;;;;;;;;;;;;;;18.28;38.00;102133.78;3089012;28;114852;-54
2021/01/16 05:41:42;;;;;;;;;;;;;;;18.26;38.03;102119.25;3093122;28;115330;-54
2021/01/16 05:43:18;;;;;;;;;;;;;;;18.25;38.13;102123.13;3095641;28;114465;-55
2021/01/16 05:44:50;;;;;;;;;;;;;;;18.24;38.01;102119.50;3095766;28;114327;-55
2021/01/16 05:46:26;;;;;;;;;;;;;;;18.23;38.04;102107.47;3093924;28;115256;-55
2021/01/16 05:47:58;;;;;;;;;;;;;;;18.21;38.08;102114.44;3093149;28;115269;-54
2021/01/16 05:49:33;;;;;;;;;;;;;;;18.21;38.02;102114.44;3098856;28;115282;-55
2021/01/16 05:51:04;;;;;;;;;;;;;;;18.18;37.85;102115.78;3098121;28;115055;-55
2021/01/16 05:52:42;;;;;;;;;;;;;;;18.16;37.87;102108.78;3096483;28;114056;-54
2021/01/16 05:54:17;;;;;;;;;;;;;;;18.16;37.95;102098.44;3096526;28;114110;-54
2021/01/16 05:55:49;;;;;;;;;;;;;;;18.15;37.95;102099.56;3100459;28;114322;-55
2021/01/16 05:57:21;;;;;;;;;;;;;;;18.15;37.94;102077.19;3089339;28;115875;-55
2021/01/16 05:58:52;;;;;;;;;;;;;;;18.13;38.01;102084.13;3089349;28;115886;-55
2021/01/16 06:00:24;;;;;;;;;;;;;;;18.12;37.94;102062.88;3088996;28;116099;-55
2021/01/16 06:01:56;;;;;;;;;;;;;;;18.10;38.14;102070.69;3089449;28;115427;-55
2021/01/16 06:03:29;;;;;;;;;;;;;;;18.07;38.17;102060.88;3097482;28;114562;-55
2021/01/16 06:05:00;;;;;;;;;;;;;;;18.07;38.02;102057.22;3094207;28;115494;-54
2021/01/16 06:06:34;;;;;;;;;;;;;;;18.05;38.26;102043.50;3086887;28;116494;-54
2021/01/16 06:08:08;;;;;;;;;;;;;;;18.03;38.32;102036.50;3092304;28;117477;-54
2021/01/16 06:09:40;;;;;;;;;;;;;;;18.04;38.18;102027.84;3089194;28;116003;-54
2021/01/16 06:11:13;;;;;;;;;;;;;;;18.07;38.16;102023.69;3095753;28;117548;-54
2021/01/16 06:12:44;;;;;;;;;;;;;;;18.10;38.21;102026.78;3095939;28;115856;-53
2021/01/16 06:14:17;;;;;;;;;;;;;;;18.14;38.44;102007.50;3091474;28;114779;-54
2021/01/16 06:15:50;;;;;;;;;;;;;;;18.18;38.19;102008.66;3085980;28;115121;-53
2021/01/16 06:17:23;;;;;;;;;;;;;;;18.21;38.73;101994.97;3095406;28;116793;-54
2021/01/16 06:18:55;;;;;;;;;;;;;;;18.26;38.71;101990.56;3092679;28;114329;-56
2021/01/16 06:20:30;;;;;;;;;;;;;;;18.31;38.56;101983.03;3093957;28;114457;-53
2021/01/16 06:22:08;;;;;;;;;;;;;;;18.35;38.72;101977.75;3094277;28;114153;-53
2021/01/16 06:23:42;;;;;;;;;;;;;;;18.40;38.61;101983.38;3092700;28;113990;-54
2021/01/16 06:25:15;;;;;;;;;;;;;;;18.46;38.80;101976.69;3095637;28;114135;-55
2021/01/16 06:26:57;;;;;;;;;;;;;;;18.50;38.99;101972.25;3096113;28;114249;-53
2021/01/16 06:28:30;;;;;;;;;;;;;;;18.55;39.04;101975.13;3086680;28;113877;-53
2021/01/16 06:30:03;;;;;;;;;;;;;;;18.60;39.02;101973.19;3098753;28;113910;-53
2021/01/16 06:31:34;;;;;;;;;;;;;;;18.67;38.87;101965.41;3097747;28;114194;-54
2021/01/16 06:33:19;;;;;;;;;;;;;;;18.73;38.72;101960.66;3098932;28;113997;-53
2021/01/16 06:35:07;;;;;;;;;;;;;;;18.80;38.53;101958.50;3097619;28;114079;-53
2021/01/16 06:36:38;;;;;;;;;;;;;;;18.86;38.64;101940.56;3096590;28;114290;-59
2021/01/16 06:38:09;;;;;;;;;;;;;;;18.93;38.61;101931.94;3096262;28;114317;-59
2021/01/16 06:39:42;;;;;;;;;;;;;;;18.97;38.54;101927.47;3102622;28;115100;-58
2021/01/16 06:41:15;;;;;;;;;;;;;;;19.02;38.37;101939.53;3095748;28;115367;-58
2021/01/16 06:42:50;;;;;;;;;;;;;;;19.08;38.36;101932.81;3095514;28;117197;-59
2021/01/16 06:44:27;;;;;;;;;;;;;;;19.15;38.24;101926.97;3095079;28;114634;-59
2021/01/16 06:46:06;;;;;;;;;;;;;;;19.21;38.22;101933.44;3098476;28;114656;-59
2021/01/16 06:47:38;;;;;;;;;;;;;;;19.26;38.23;101936.25;3098669;28;114288;-59
2021/01/16 06:49:19;;;;;;;;;;;;;;;19.31;38.00;101936.25;3093203;28;116591;-58
2021/01/16 06:50:51;;;;;;;;;;;;;;;19.37;37.86;101933.19;3097737;28;114181;-59
2021/01/16 06:52:30;;;;;;;;;;;;;;;19.42;37.78;101923.97;3089534;28;114243;-59
2021/01/16 06:54:05;;;;;;;;;;;;;;;19.46;37.75;101923.16;3098096;28;114272;-59
2021/01/16 06:55:36;;;;;;;;;;;;;;;19.52;37.78;101922.06;3090894;28;115475;-59
2021/01/16 06:57:09;;;;;;;;;;;;;;;19.57;38.28;101923.19;3093196;28;114952;-59
2021/01/16 06:58:42;;;;;;;;;;;;;;;19.60;37.98;101920.66;3088355;28;114163;-59
2021/01/16 07:00:14;;;;;;;;;;;;;;;19.64;37.67;101921.78;3088583;28;114380;-60
2021/01/16 07:01:49;;;;;;;;;;;;;;;19.69;37.86;101923.75;3094350;28;116190;-60
2021/01/16 07:03:23;;;;;;;;;;;;;;;19.72;37.77;101915.63;3095912;28;114671;-59
2021/01/16 07:05:02;;;;;;;;;;;;;;;19.77;37.97;101909.16;3089038;28;114563;-60
2021/01/16 07:06:48;;;;;;;;;;;;;;;19.80;37.40;101909.47;3095229;28;115754;-60
2021/01/16 07:08:21;;;;;;;;;;;;;;;19.85;37.85;101903.84;3093219;28;114715;-59
2021/01/16 07:09:55;;;;;;;;;;;;;;;19.88;37.43;101908.91;3097451;28;115826;-58
2021/01/16 07:11:26;;;;;;;;;;;;;;;19.91;37.37;101899.91;3090978;28;115859;-59
2021/01/16 07:13:01;;;;;;;;;;;;;;;19.95;37.10;101887.00;3091269;28;115153;-59
2021/01/16 07:14:33;;;;;;;;;;;;;;;20.02;37.29;101883.09;3096936;28;114813;-59
2021/01/16 07:16:05;;;;;;;;;;;;;;;20.04;36.87;101884.47;3098490;28;115753;-59
2021/01/16 07:17:37;;;;;;;;;;;;;;;20.07;37.11;101877.47;3097404;28;116190;-54
2021/01/16 07:19:09;;;;;;;;;;;;;;;20.11;36.93;101872.97;3097960;28;116286;-54
2021/01/16 07:20:40;;;;;;;;;;;;;;;20.15;36.65;101860.06;3091130;28;115677;-54
2021/01/16 07:22:11;;;;;;;;;;;;;;;20.19;36.81;101858.38;3093012;28;114582;-54
2021/01/16 07:23:44;;;;;;;;;;;;;;;20.20;36.79;101851.63;3097279;28;115778;-54
2021/01/16 07:25:15;;;;;;;;;;;;;;;20.23;37.58;101843.47;3100355;28;115068;-55
2021/01/16 07:26:48;;;;;;;;;;;;;;;20.27;37.52;101836.16;3088644;28;114407;-55
2021/01/16 07:28:20;;;;;;;;;;;;;;;20.30;37.08;101832.84;3097963;28;114901;-54
2021/01/16 07:29:55;;;;;;;;;;;;;;;20.33;37.07;101828.63;3087530;28;114271;-55
2021/01/16 07:31:31;;;;;;;;;;;;;;;20.36;36.77;101831.69;3084984;28;114305;-60
2021/01/16 07:33:04;;;;;;;;;;;;;;;20.40;36.71;101831.94;3089364;28;114821;-60
2021/01/16 07:34:36;;;;;;;;;;;;;;;20.43;36.68;101828.59;3091550;28;114242;-59
2021/01/16 07:36:11;;;;;;;;;;;;;;;20.45;36.91;101817.91;3095620;28;113984;-59
2021/01/16 07:37:42;;;;;;;;;;;;;;;20.49;36.47;101815.38;3095252;28;114148;-60
2021/01/16 07:39:28;;;;;;;;;;;;;;;20.52;36.68;101807.22;3088990;28;114550;-59
2021/01/16 07:41:01;;;;;;;;;;;;;;;20.55;36.51;101808.59;3097405;28;114183;-60
2021/01/16 07:42:49;;;;;;;;;;;;;;;20.57;36.55;101810.00;3087648;28;113812;-59
2021/01/16 07:44:31;;;;;;;;;;;;;;;20.60;36.40;101803.81;3086181;28;114343;-59
2021/01/16 07:46:09;;;;;;;;;;;;;;;20.62;36.32;101801.56;3087060;28;114264;-59
2021/01/16 07:47:41;;;;;;;;;;;;;;;20.66;36.08;101796.19;3101104;28;114579;-59
2021/01/16 07:49:13;;;;;;;;;;;;;;;20.69;36.21;101790.00;3096696;28;115179;-59
2021/01/16 07:50:44;;;;;;;;;;;;;;;20.72;36.19;101787.44;3099340;28;114473;-59
2021/01/16 07:52:19;;;;;;;;;;;;;;;20.74;36.13;101784.34;3087961;28;114648;-59
2021/01/16 07:53:55;;;;;;;;;;;;;;;20.76;35.94;101776.47;3095982;28;114527;-60
2021/01/16 07:55:35;;;;;;;;;;;;;;;20.78;36.13;101769.44;3089807;28;115903;-55